Time;durP1;ratioP1;P1;durP2;ratioP2;P2;SDS_P1;SDS_P2;PMS_P1;PMS_P2;Temp;Humidity;BMP_temperature;BMP_pressure;BME280_temperature;BME280_humidity;BME280_pressure;Samples;Min_cycle;Max_cycle;Signal;HPM_P1;HPM_P2
2022/06/30 00:01:15;;;;;;;4.88;4.43;;;;;;;;;;12628722;28;20024;-81
2022/06/30 00:07:17;;;;;;;5.82;5.18;;;;;;;;;;12628026;28;20044;-80
2022/06/30 00:13:19;;;;;;;4.60;4.18;;;;;;;;;;12628009;28;20036;-81
2022/06/30 00:19:20;;;;;;;7.13;5.03;;;;;;;;;;12627829;28;20039;-81
2022/06/30 00:25:22;;;;;;;5.30;4.35;;;;;;;;;;12646058;28;20039;-81
2022/06/30 00:31:24;;;;;;;4.57;4.18;;;;;;;;;;12627864;28;20036;-80
2022/06/30 00:37:25;;;;;;;8.93;4.97;;;;;;;;;;12644857;28;20058;-80
2022/06/30 00:43:27;;;;;;;;;;;;;;;;;;12627581;28;20039;-81
2022/06/30 00:49:29;;;;;;;7.17;5.93;;;;;;;;;;12645082;28;19916;-86
2022/06/30 00:55:31;;;;;;;6.20;5.53;;;;;;;;;;12610877;28;20032;-81
2022/06/30 01:01:33;;;;;;;7.68;6.57;;;;;;;;;;12644915;28;20032;-86
2022/06/30 01:07:35;;;;;;;6.93;5.47;;;;;;;;;;12626406;28;20036;-87
2022/06/30 01:13:37;;;;;;;7.90;6.88;;;;;;;;;;12626716;28;20040;-86
2022/06/30 01:19:50;;;;;;;7.00;6.30;;;;;;;;;;12632026;28;20488;-81
2022/06/30 01:25:53;;;;;;;6.10;5.00;;;;;;;;;;12654823;28;20396;-86
2022/06/30 01:31:55;;;;;;;6.40;5.25;;;;;;;;;;12619672;28;20063;-87
2022/06/30 01:37:56;;;;;;;;;;;;;;;;;;12636365;28;20048;-87
2022/06/30 01:43:58;;;;;;;5.60;5.10;;;;;;;;;;12653539;28;19912;-81
2022/06/30 01:49:59;;;;;;;6.85;5.15;;;;;;;;;;12634940;28;20286;-80
2022/06/30 01:56:01;;;;;;;;;;;;;;;;;;12635377;28;20039;-87
2022/06/30 02:02:03;;;;;;;5.53;5.07;;;;;;;;;;12634463;28;19915;-80
2022/06/30 02:08:04;;;;;;;5.90;5.30;;;;;;;;;;12635570;28;20040;-81
2022/06/30 02:14:06;;;;;;;;;;;;;;;;;;12652713;28;20036;-86
2022/06/30 02:20:08;;;;;;;5.40;4.90;;;;;;;;;;12633614;28;19908;-81
2022/06/30 02:26:10;;;;;;;6.50;5.90;;;;;;;;;;12651444;28;20396;-81
2022/06/30 02:32:11;;;;;;;;;;;;;;;;;;12633181;28;20036;-84
2022/06/30 02:38:13;;;;;;;5.70;4.57;;;;;;;;;;12616234;28;19923;-87
2022/06/30 02:44:15;;;;;;;5.47;4.97;;;;;;;;;;12650621;28;20449;-80
2022/06/30 02:50:17;;;;;;;7.00;4.55;;;;;;;;;;12650135;28;20396;-81
2022/06/30 02:56:19;;;;;;;7.70;4.90;;;;;;;;;;12631660;28;20036;-81
2022/06/30 03:02:20;;;;;;;;;;;;;;;;;;12650336;28;20043;-86
2022/06/30 03:08:22;;;;;;;5.70;5.20;;;;;;;;;;12614905;28;20379;-85
2022/06/30 03:14:24;;;;;;;6.40;5.80;;;;;;;;;;12631550;28;20282;-80
2022/06/30 03:20:26;;;;;;;5.80;5.30;;;;;;;;;;12649329;28;20036;-80
2022/06/30 03:26:28;;;;;;;6.72;5.00;;;;;;;;;;12648493;28;20036;-86
2022/06/30 03:32:29;;;;;;;6.13;4.78;;;;;;;;;;12613755;28;20051;-86
2022/06/30 03:38:31;;;;;;;;;;;;;;;;;;12630401;28;20081;-86
2022/06/30 03:44:33;;;;;;;6.33;4.10;;;;;;;;;;12648743;28;19912;-86
2022/06/30 03:50:34;;;;;;;7.10;5.22;;;;;;;;;;12647877;28;20055;-86
2022/06/30 03:56:36;;;;;;;5.82;4.18;;;;;;;;;;12647228;28;20035;-85
2022/06/30 04:02:38;;;;;;;6.05;3.97;;;;;;;;;;12629103;28;20024;-86
2022/06/30 04:08:39;;;;;;;;;;;;;;;;;;12629823;28;20395;-80
2022/06/30 04:14:41;;;;;;;4.23;3.00;;;;;;;;;;12646327;28;19916;-80
2022/06/30 04:20:43;;;;;;;;;;;;;;;;;;12628544;28;20047;-80
2022/06/30 04:26:44;;;;;;;4.87;3.03;;;;;;;;;;12645687;28;20352;-79
2022/06/30 04:32:46;;;;;;;5.35;3.63;;;;;;;;;;12645535;28;20404;-80
2022/06/30 04:38:48;;;;;;;5.35;3.70;;;;;;;;;;12627469;28;20044;-80
2022/06/30 04:44:49;;;;;;;5.72;4.03;;;;;;;;;;12626762;28;20408;-80
2022/06/30 04:50:51;;;;;;;4.30;2.78;;;;;;;;;;12626654;28;20275;-80
2022/06/30 04:56:53;;;;;;;3.25;2.83;;;;;;;;;;12626473;28;20031;-80
2022/06/30 05:02:55;;;;;;;4.47;3.63;;;;;;;;;;12644444;28;20040;-80
2022/06/30 05:08:56;;;;;;;;;;;;;;;;;;12645408;28;20043;-85
2022/06/30 05:14:59;;;;;;;4.07;3.07;;;;;;;;;;12625927;28;19927;-85
2022/06/30 05:21:00;;;;;;;4.82;4.28;;;;;;;;;;12643907;28;20024;-85
2022/06/30 05:27:02;;;;;;;;;;;;;;;;;;12626315;28;20040;-84
2022/06/30 05:33:03;;;;;;;7.97;3.83;;;;;;;;;;12624830;28;19923;-84
2022/06/30 05:39:05;;;;;;;;;;;;;;;;;;12623999;28;20411;-83
2022/06/30 05:45:07;;;;;;;4.93;3.30;;;;;;;;;;12643928;28;19923;-82
2022/06/30 05:51:09;;;;;;;5.05;3.90;;;;;;;;;;12642479;28;20298;-83
2022/06/30 05:57:10;;;;;;;;;;;;;;;;;;12625057;28;20507;-83
2022/06/30 06:03:12;;;;;;;4.20;3.80;;;;;;;;;;12608074;28;20307;-80
2022/06/30 06:09:14;;;;;;;1.83;1.60;;;;;;;;;;12632281;28;20396;-81
2022/06/30 06:15:15;;;;;;;;;;;;;;;;;;12650376;28;20047;-79
2022/06/30 06:21:17;;;;;;;4.50;3.28;;;;;;;;;;12649950;28;19912;-82
2022/06/30 06:27:19;;;;;;;4.43;2.90;;;;;;;;;;12649891;28;20054;-81
2022/06/30 06:33:21;;;;;;;4.88;3.22;;;;;;;;;;12643733;28;20024;-81
2022/06/30 06:39:23;;;;;;;6.55;3.35;;;;;;;;;;12639283;28;20055;-80
2022/06/30 06:45:25;;;;;;;4.30;2.65;;;;;;;;;;12630773;28;20032;-81
2022/06/30 06:51:27;;;;;;;4.13;2.95;;;;;;;;;;12649143;28;20048;-83
2022/06/30 06:57:32;;;;;;;5.25;2.85;;;;;;;;;;12631164;28;20028;-82
2022/06/30 07:03:34;;;;;;;5.13;2.50;;;;;;;;;;12640751;28;20039;-80
2022/06/30 07:09:36;;;;;;;3.72;2.97;;;;;;;;;;12648040;28;20040;-86
2022/06/30 07:15:38;;;;;;;4.85;2.95;;;;;;;;;;12692414;28;20024;-86
2022/06/30 07:21:39;;;;;;;2.80;2.40;;;;;;;;;;12678410;28;20050;-84
2022/06/30 07:27:41;;;;;;;7.18;2.90;;;;;;;;;;12696997;28;20035;-85
2022/06/30 07:33:44;;;;;;;4.38;3.28;;;;;;;;;;12691902;28;20064;-84
2022/06/30 07:39:45;;;;;;;4.70;3.22;;;;;;;;;;12680558;28;20047;-84
2022/06/30 07:45:47;;;;;;;4.72;2.97;;;;;;;;;;12696256;28;20051;-87
2022/06/30 07:51:49;;;;;;;5.95;4.03;;;;;;;;;;12678825;28;20054;-85
2022/06/30 07:57:51;;;;;;;5.43;2.70;;;;;;;;;;12678623;28;20031;-83
2022/06/30 08:03:53;;;;;;;7.00;3.17;;;;;;;;;;12678498;28;20099;-85
2022/06/30 08:09:56;;;;;;;4.38;2.55;;;;;;;;;;12697534;28;20058;-82
2022/06/30 08:15:57;;;;;;;3.95;2.88;;;;;;;;;;12697565;28;20031;-85
2022/06/30 08:21:59;;;;;;;5.00;2.88;;;;;;;;;;12660763;28;20063;-84
2022/06/30 08:28:03;;;;;;;4.80;2.58;;;;;;;;;;12695396;28;20050;-85
2022/06/30 08:34:05;;;;;;;3.42;1.88;;;;;;;;;;12660971;28;20040;-80
2022/06/30 08:46:28;;;;;;;3.65;2.45;;;;;;;;;;12677507;28;20046;-82
2022/06/30 08:52:30;;;;;;;3.25;2.33;;;;;;;;;;12675863;28;20044;-82
2022/06/30 08:58:32;;;;;;;2.50;1.60;;;;;;;;;;12694497;28;20043;-80
2022/06/30 09:04:34;;;;;;;4.97;2.10;;;;;;;;;;12675737;28;20031;-83
2022/06/30 09:10:36;;;;;;;2.80;2.13;;;;;;;;;;12675739;28;20050;-81
2022/06/30 09:16:52;;;;;;;2.80;2.60;;;;;;;;;;12659165;28;20028;-84
2022/06/30 09:22:54;;;;;;;3.85;2.20;;;;;;;;;;12675284;28;20046;-82
2022/06/30 09:28:55;;;;;;;3.58;2.25;;;;;;;;;;12693520;28;20040;-81
2022/06/30 09:35:08;;;;;;;4.38;2.30;;;;;;;;;;12670205;28;20038;-81
2022/06/30 09:41:25;;;;;;;5.65;2.25;;;;;;;;;;12698218;28;20460;-79
2022/06/30 09:47:27;;;;;;;4.03;2.20;;;;;;;;;;12701287;28;20046;-81
2022/06/30 09:53:29;;;;;;;3.35;2.25;;;;;;;;;;12700843;28;20042;-83
2022/06/30 09:59:31;;;;;;;9.77;2.95;;;;;;;;;;12680952;28;20040;-83
2022/06/30 10:05:33;;;;;;;5.38;2.63;;;;;;;;;;12681750;28;20043;-84
2022/06/30 10:11:36;;;;;;;4.38;2.10;;;;;;;;;;12618454;28;20047;-84
2022/06/30 10:17:41;;;;;;;4.00;2.25;;;;;;;;;;12632588;28;20028;-84
2022/06/30 10:23:44;;;;;;;4.45;2.60;;;;;;;;;;12634956;28;20036;-87
2022/06/30 10:29:56;;;;;;;5.57;2.00;;;;;;;;;;12633003;28;20487;-79
2022/06/30 10:36:08;;;;;;;2.85;1.90;;;;;;;;;;12632813;28;20466;-78
2022/06/30 10:42:10;;;;;;;3.60;1.95;;;;;;;;;;12632011;28;20059;-80
2022/06/30 10:48:12;;;;;;;3.13;1.92;;;;;;;;;;12632291;28;20044;-80
2022/06/30 10:54:30;;;;;;;3.78;1.95;;;;;;;;;;12615122;28;20028;-80
2022/06/30 11:00:45;;;;;;;3.13;1.92;;;;;;;;;;12649918;28;20040;-80
2022/06/30 11:06:57;;;;;;;3.42;2.08;;;;;;;;;;12631543;28;20051;-80
2022/06/30 11:13:00;;;;;;;3.30;2.25;;;;;;;;;;12613996;28;20040;-80
2022/06/30 11:19:04;;;;;;;4.10;1.73;;;;;;;;;;12648882;28;20039;-80
2022/06/30 11:25:07;;;;;;;5.25;2.60;;;;;;;;;;12649468;28;20043;-80
2022/06/30 11:31:21;;;;;;;5.53;2.40;;;;;;;;;;12648487;28;20059;-80
2022/06/30 11:37:27;;;;;;;4.85;2.65;;;;;;;;;;12629995;28;20404;-81
2022/06/30 11:43:29;;;;;;;4.45;2.33;;;;;;;;;;12647354;28;20365;-80
2022/06/30 11:49:40;;;;;;;8.32;4.15;;;;;;;;;;12629307;28;20515;-79
2022/06/30 11:55:42;;;;;;;5.22;2.80;;;;;;;;;;12647165;28;20397;-79
2022/06/30 12:01:59;;;;;;;6.75;2.80;;;;;;;;;;12645801;28;20032;-79
2022/06/30 12:08:00;;;;;;;3.78;2.13;;;;;;;;;;12646800;28;20036;-81
2022/06/30 12:14:02;;;;;;;5.63;2.70;;;;;;;;;;12627828;28;20503;-79
2022/06/30 12:20:05;;;;;;;3.92;2.70;;;;;;;;;;12645756;28;20035;-79
2022/06/30 12:26:07;;;;;;;4.07;2.63;;;;;;;;;;12645661;28;20036;-80
2022/06/30 12:32:13;;;;;;;2.70;1.92;;;;;;;;;;12627143;28;20032;-80
2022/06/30 12:38:24;;;;;;;6.15;3.58;;;;;;;;;;12645577;28;20063;-80
2022/06/30 12:44:38;;;;;;;6.22;2.78;;;;;;;;;;12646142;28;20028;-79
2022/06/30 12:50:41;;;;;;;4.82;2.33;;;;;;;;;;12644264;28;20044;-81
2022/06/30 12:56:50;;;;;;;4.28;2.65;;;;;;;;;;12626431;28;20388;-81
2022/06/30 13:02:53;;;;;;;4.68;2.22;;;;;;;;;;12626604;28;20040;-80
2022/06/30 13:08:55;;;;;;;4.30;2.72;;;;;;;;;;12626642;28;20403;-80
2022/06/30 13:15:00;;;;;;;3.13;2.00;;;;;;;;;;12625058;28;20040;-80
2022/06/30 13:21:02;;;;;;;5.22;2.47;;;;;;;;;;12644071;28;20028;-79
2022/06/30 13:27:05;;;;;;;6.05;2.97;;;;;;;;;;12625798;28;20500;-80
2022/06/30 13:33:07;;;;;;;2.67;1.98;;;;;;;;;;12643600;28;20036;-81
2022/06/30 13:39:09;;;;;;;3.25;2.08;;;;;;;;;;12625791;28;20056;-79
2022/06/30 13:45:16;;;;;;;3.83;2.38;;;;;;;;;;12643197;28;20503;-79
2022/06/30 13:51:21;;;;;;;3.97;1.52;;;;;;;;;;12625407;28;20071;-79
2022/06/30 13:57:23;;;;;;;3.47;1.85;;;;;;;;;;12624924;28;20032;-80
2022/06/30 14:03:25;;;;;;;2.97;1.95;;;;;;;;;;12608146;28;20036;-80
2022/06/30 14:09:26;;;;;;;4.43;2.22;;;;;;;;;;12608487;28;20055;-80
2022/06/30 14:15:28;;;;;;;4.22;2.40;;;;;;;;;;12642613;28;20039;-80
2022/06/30 14:21:31;;;;;;;6.65;2.42;;;;;;;;;;12642677;28;20494;-80
2022/06/30 14:27:33;;;;;;;4.50;2.33;;;;;;;;;;12639951;28;20037;-79
2022/06/30 14:33:35;;;;;;;8.15;2.35;;;;;;;;;;12632654;28;20067;-80
2022/06/30 14:39:37;;;;;;;3.83;2.38;;;;;;;;;;12650420;28;20059;-79
2022/06/30 14:45:39;;;;;;;5.95;2.25;;;;;;;;;;12650260;28;20031;-80
2022/06/30 14:51:42;;;;;;;4.75;2.13;;;;;;;;;;12632000;28;20464;-81
2022/06/30 14:57:44;;;;;;;3.03;2.03;;;;;;;;;;12615157;28;20024;-80
2022/06/30 15:03:46;;;;;;;3.28;2.10;;;;;;;;;;12649728;28;20400;-78
2022/06/30 15:09:48;;;;;;;3.53;2.20;;;;;;;;;;12631072;28;20052;-77
2022/06/30 15:15:50;;;;;;;4.95;2.90;;;;;;;;;;12648424;28;20043;-77
2022/06/30 15:28:12;;;;;;;3.53;2.10;;;;;;;;;;12630100;28;20059;-78
2022/06/30 15:34:14;;;;;;;4.22;2.20;;;;;;;;;;12648173;28;20028;-78
2022/06/30 15:40:19;;;;;;;3.63;2.00;;;;;;;;;;12612119;28;20083;-78
2022/06/30 15:46:23;;;;;;;5.18;2.17;;;;;;;;;;12647383;28;20059;-77
2022/06/30 15:52:25;;;;;;;6.07;2.22;;;;;;;;;;12628802;28;20044;-77
2022/06/30 15:58:29;;;;;;;3.22;1.88;;;;;;;;;;12647064;28;20473;-77
2022/06/30 16:04:32;;;;;;;4.70;2.20;;;;;;;;;;12628255;28;20032;-78
2022/06/30 16:10:33;;;;;;;3.00;1.60;;;;;;;;;;12647512;28;20502;-78
2022/06/30 16:16:35;;;;;;;3.67;1.88;;;;;;;;;;12628155;28;20476;-78
2022/06/30 16:22:37;;;;;;;5.85;2.00;;;;;;;;;;12627614;28;20043;-78
2022/06/30 16:28:42;;;;;;;3.85;1.65;;;;;;;;;;12611104;28;20040;-78
2022/06/30 16:34:43;;;;;;;6.80;2.03;;;;;;;;;;12645988;28;20031;-78
2022/06/30 16:40:46;;;;;;;2.95;1.63;;;;;;;;;;12645709;28;20063;-78
2022/06/30 16:46:48;;;;;;;4.50;1.70;;;;;;;;;;12645525;28;20028;-78
2022/06/30 16:52:50;;;;;;;4.70;1.60;;;;;;;;;;12644831;28;20040;-78
2022/06/30 16:58:52;;;;;;;4.95;1.65;;;;;;;;;;12644865;28;20044;-79
2022/06/30 17:04:54;;;;;;;3.35;1.75;;;;;;;;;;12627011;28;20036;-78
2022/06/30 17:11:13;;;;;;;5.90;2.13;;;;;;;;;;12626394;28;20055;-78
2022/06/30 17:17:15;;;;;;;5.05;1.90;;;;;;;;;;12644021;28;20032;-78
2022/06/30 17:23:17;;;;;;;2.67;1.55;;;;;;;;;;12644196;28;20035;-78
2022/06/30 17:29:19;;;;;;;3.92;1.80;;;;;;;;;;12643262;28;20044;-78
2022/06/30 17:35:21;;;;;;;5.30;2.10;;;;;;;;;;12643511;28;20028;-79
2022/06/30 17:41:22;;;;;;;5.82;2.28;;;;;;;;;;12643043;28;20053;-79
2022/06/30 17:47:25;;;;;;;4.47;1.90;;;;;;;;;;12643287;28;20036;-79
2022/06/30 17:53:27;;;;;;;3.38;1.60;;;;;;;;;;12624997;28;20044;-79
2022/06/30 17:59:29;;;;;;;3.83;1.70;;;;;;;;;;12626668;28;20479;-79
2022/06/30 18:05:31;;;;;;;3.28;1.55;;;;;;;;;;12634513;28;20036;-79
2022/06/30 18:11:33;;;;;;;3.65;1.42;;;;;;;;;;12652113;28;20052;-79
2022/06/30 18:17:35;;;;;;;5.60;1.90;;;;;;;;;;12651990;28;20036;-79
2022/06/30 18:23:38;;;;;;;3.17;1.63;;;;;;;;;;12633628;28;20032;-79
2022/06/30 18:29:39;;;;;;;3.83;1.58;;;;;;;;;;12651295;28;20059;-79
2022/06/30 18:35:41;;;;;;;3.30;1.35;;;;;;;;;;12632814;28;20479;-78
2022/06/30 18:41:43;;;;;;;5.25;2.35;;;;;;;;;;12633150;28;20059;-78
2022/06/30 18:47:44;;;;;;;4.43;1.65;;;;;;;;;;12650493;28;20028;-78
2022/06/30 18:53:46;;;;;;;6.30;1.88;;;;;;;;;;12615522;28;20047;-82
2022/06/30 18:59:49;;;;;;;3.20;1.45;;;;;;;;;;12615300;28;20032;-83
2022/06/30 19:05:51;;;;;;;4.32;1.67;;;;;;;;;;12615084;28;20040;-82
2022/06/30 19:11:53;;;;;;;4.80;2.35;;;;;;;;;;12631336;28;20074;-78
2022/06/30 19:17:54;;;;;;;4.63;1.70;;;;;;;;;;12631649;28;20032;-79
2022/06/30 19:23:56;;;;;;;3.55;1.65;;;;;;;;;;12614154;28;20032;-78
2022/06/30 19:29:58;;;;;;;2.60;1.50;;;;;;;;;;12630557;28;20035;-78
2022/06/30 19:36:03;;;;;;;4.47;1.55;;;;;;;;;;12630588;28;20461;-78
2022/06/30 19:48:25;;;;;;;4.35;1.70;;;;;;;;;;12629397;28;20032;-78
2022/06/30 19:54:27;;;;;;;5.38;1.83;;;;;;;;;;12629223;28;20036;-78
2022/06/30 20:00:31;;;;;;;2.78;1.70;;;;;;;;;;12647176;28;20423;-78
2022/06/30 20:06:33;;;;;;;3.17;1.55;;;;;;;;;;12647619;28;20032;-78
2022/06/30 20:12:35;;;;;;;4.22;2.15;;;;;;;;;;12628580;28;20040;-78
2022/06/30 20:18:37;;;;;;;2.97;1.83;;;;;;;;;;12646576;28;20039;-78
2022/06/30 20:24:38;;;;;;;2.97;1.80;;;;;;;;;;12646210;28;20028;-78
2022/06/30 20:30:40;;;;;;;2.67;1.80;;;;;;;;;;12627526;28;20491;-78
2022/06/30 20:36:42;;;;;;;2.72;1.80;;;;;;;;;;12645795;28;20039;-79
2022/06/30 20:42:44;;;;;;;2.33;1.80;;;;;;;;;;12610569;28;20036;-78
2022/06/30 20:55:07;;;;;;;4.25;1.95;;;;;;;;;;12627609;28;20039;-81
2022/06/30 21:01:09;;;;;;;3.75;2.25;;;;;;;;;;12627235;28;20035;-83
2022/06/30 21:07:10;;;;;;;5.32;2.20;;;;;;;;;;12645837;28;20055;-82
2022/06/30 21:13:14;;;;;;;3.00;2.25;;;;;;;;;;12644981;28;20070;-82
2022/06/30 21:19:16;;;;;;;4.53;2.33;;;;;;;;;;12644221;28;20040;-82
2022/06/30 21:25:18;;;;;;;3.63;2.20;;;;;;;;;;12610318;28;20032;-82
2022/06/30 21:31:19;;;;;;;6.80;2.50;;;;;;;;;;12643866;28;20059;-82
2022/06/30 21:37:21;;;;;;;4.32;2.55;;;;;;;;;;12632944;28;20044;-81
2022/06/30 21:43:23;;;;;;;3.60;2.33;;;;;;;;;;12635574;28;20392;-78
2022/06/30 21:49:24;;;;;;;3.30;2.20;;;;;;;;;;12653822;28;20051;-79
2022/06/30 21:55:26;;;;;;;4.03;2.88;;;;;;;;;;12654164;28;20059;-79
2022/06/30 22:01:28;;;;;;;4.85;2.83;;;;;;;;;;12635984;28;20384;-79
2022/06/30 22:07:30;;;;;;;4.53;2.72;;;;;;;;;;12654207;28;20055;-79
2022/06/30 22:13:31;;;;;;;4.40;3.00;;;;;;;;;;12652465;28;20062;-78
2022/06/30 22:19:33;;;;;;;3.53;2.50;;;;;;;;;;12652085;28;20476;-78
2022/06/30 22:25:35;;;;;;;5.93;2.85;;;;;;;;;;12651847;28;20024;-78
2022/06/30 22:31:37;;;;;;;5.75;2.50;;;;;;;;;;12651706;28;20040;-78
2022/06/30 22:37:39;;;;;;;4.15;3.28;;;;;;;;;;12632410;28;20055;-78
2022/06/30 22:43:40;;;;;;;3.30;3.00;;;;;;;;;;12614247;28;20115;-83
2022/06/30 22:49:42;;;;;;;4.63;3.00;;;;;;;;;;12612827;28;20047;-82
2022/06/30 22:55:44;;;;;;;4.22;3.05;;;;;;;;;;12612708;28;20032;-82
2022/06/30 23:01:45;;;;;;;3.92;2.97;;;;;;;;;;12629906;28;20032;-82
2022/06/30 23:07:47;;;;;;;3.92;2.85;;;;;;;;;;12630042;28;20047;-83
2022/06/30 23:13:49;;;;;;;5.22;3.33;;;;;;;;;;12646689;28;20051;-78
2022/06/30 23:19:51;;;;;;;4.05;2.83;;;;;;;;;;12628472;28;20036;-78
2022/06/30 23:25:52;;;;;;;5.07;3.53;;;;;;;;;;12646668;28;20046;-78
2022/06/30 23:31:54;;;;;;;4.55;3.50;;;;;;;;;;12628279;28;20402;-78
2022/06/30 23:37:56;;;;;;;4.22;3.83;;;;;;;;;;12586169;28;1198413;-78
2022/06/30 23:43:57;;;;;;;4.70;3.58;;;;;;;;;;12648833;28;20031;-78
2022/06/30 23:49:59;;;;;;;5.40;3.58;;;;;;;;;;12648598;28;20040;-78
2022/06/30 23:56:01;;;;;;;4.65;3.25;;;;;;;;;;12629137;28;20464;-78
